Time;durP1;ratioP1;P1;durP2;ratioP2;P2;SDS_P1;SDS_P2;PMS_P1;PMS_P2;Temp;Humidity;BMP_temperature;BMP_pressure;BME280_temperature;BME280_humidity;BME280_pressure;Samples;Min_cycle;Max_cycle;Signal;HPM_P1;HPM_P2
2021/05/02 00:01:17;;;;;;;9.93;7.18;;;;;;;;;;5094648;28;20059;-72
2021/05/02 00:03:43;;;;;;;10.32;6.95;;;;;;;;;;5093921;28;20032;-72
2021/05/02 00:06:10;;;;;;;12.90;7.55;;;;;;;;;;5094570;28;20103;-72
2021/05/02 00:08:37;;;;;;;13.13;8.75;;;;;;;;;;5094158;28;20092;-72
2021/05/02 00:11:05;;;;;;;13.48;10.23;;;;;;;;;;5094464;28;20035;-72
2021/05/02 00:13:31;;;;;;;14.90;9.15;;;;;;;;;;5093664;28;20036;-72
2021/05/02 00:15:57;;;;;;;14.30;10.20;;;;;;;;;;5094203;28;20105;-72
2021/05/02 00:18:26;;;;;;;15.52;9.70;;;;;;;;;;5094201;28;20024;-72
2021/05/02 00:20:56;;;;;;;18.92;11.70;;;;;;;;;;5094327;28;20035;-72
2021/05/02 00:23:22;;;;;;;12.25;8.65;;;;;;;;;;5093980;28;20070;-72
2021/05/02 00:25:49;;;;;;;12.40;9.07;;;;;;;;;;5094359;28;20027;-72
2021/05/02 00:28:15;;;;;;;12.23;9.02;;;;;;;;;;5094182;28;20036;-72
2021/05/02 00:30:41;;;;;;;11.93;8.13;;;;;;;;;;5094007;28;20560;-72
2021/05/02 00:33:08;;;;;;;13.13;9.40;;;;;;;;;;5093789;28;20063;-72
2021/05/02 00:35:35;;;;;;;11.18;7.97;;;;;;;;;;5092740;28;20036;-72
2021/05/02 00:38:00;;;;;;;14.57;8.02;;;;;;;;;;5092611;28;20038;-72
2021/05/02 00:40:35;;;;;;;11.85;7.50;;;;;;;;;;5093976;28;20028;-72
2021/05/02 00:43:12;;;;;;;17.98;9.27;;;;;;;;;;5093522;28;20059;-72
2021/05/02 00:45:46;;;;;;;10.98;8.35;;;;;;;;;;5093042;28;20161;-72
2021/05/02 00:48:21;;;;;;;10.30;7.93;;;;;;;;;;5093769;28;20181;-72
2021/05/02 00:50:54;;;;;;;12.90;8.95;;;;;;;;;;5093809;28;20044;-72
2021/05/02 00:53:28;;;;;;;11.88;7.65;;;;;;;;;;5092325;28;20046;-72
2021/05/02 00:55:57;;;;;;;14.40;7.90;;;;;;;;;;5093696;28;20036;-72
2021/05/02 00:58:39;;;;;;;12.82;8.13;;;;;;;;;;5092338;28;20028;-72
2021/05/02 01:01:06;;;;;;;9.63;7.35;;;;;;;;;;5093149;28;20392;-72
2021/05/02 01:03:33;;;;;;;10.63;7.28;;;;;;;;;;5093249;28;20032;-72
2021/05/02 01:06:05;;;;;;;12.05;7.57;;;;;;;;;;5093604;28;20036;-72
2021/05/02 01:08:35;;;;;;;15.50;7.85;;;;;;;;;;5091880;28;20131;-72
2021/05/02 01:11:03;;;;;;;10.88;7.75;;;;;;;;;;5093335;28;20051;-72
2021/05/02 01:13:34;;;;;;;13.05;7.82;;;;;;;;;;5093487;28;20035;-72
2021/05/02 01:16:03;;;;;;;11.90;8.13;;;;;;;;;;5092589;28;20086;-72
2021/05/02 01:18:28;;;;;;;13.70;8.88;;;;;;;;;;5093021;28;20039;-72
2021/05/02 01:20:56;;;;;;;11.95;9.23;;;;;;;;;;5093191;28;20085;-72
2021/05/02 01:23:23;;;;;;;13.68;8.05;;;;;;;;;;5093012;28;20047;-72
2021/05/02 01:25:54;;;;;;;12.25;7.78;;;;;;;;;;5093540;28;20042;-72
2021/05/02 01:28:20;;;;;;;12.32;8.55;;;;;;;;;;5093417;28;20036;-73
2021/05/02 01:30:47;;;;;;;10.05;7.57;;;;;;;;;;5092038;28;20032;-72
2021/05/02 01:33:13;;;;;;;12.27;8.80;;;;;;;;;;5093372;28;20032;-72
2021/05/02 01:35:38;;;;;;;12.75;8.30;;;;;;;;;;5093187;28;20531;-72
2021/05/02 01:38:04;;;;;;;14.10;8.98;;;;;;;;;;5092793;28;20058;-73
2021/05/02 01:40:29;;;;;;;13.63;9.18;;;;;;;;;;5093010;28;20043;-72
2021/05/02 01:42:55;;;;;;;11.38;8.80;;;;;;;;;;5093091;28;20048;-72
2021/05/02 01:45:21;;;;;;;12.63;9.27;;;;;;;;;;5093173;28;20361;-72
2021/05/02 01:47:49;;;;;;;14.38;8.90;;;;;;;;;;5091844;28;20040;-72
2021/05/02 01:50:15;;;;;;;11.35;9.10;;;;;;;;;;5092988;28;20038;-72
2021/05/02 01:52:47;;;;;;;13.70;8.18;;;;;;;;;;5092882;28;20028;-72
2021/05/02 01:55:14;;;;;;;13.75;9.98;;;;;;;;;;5091671;28;20045;-72
2021/05/02 01:57:40;;;;;;;13.52;10.00;;;;;;;;;;5093054;28;20039;-72
2021/05/02 02:00:12;;;;;;;15.77;8.57;;;;;;;;;;5091556;28;20039;-72
2021/05/02 02:02:40;;;;;;;10.77;8.90;;;;;;;;;;5092947;28;20032;-72
2021/05/02 02:05:06;;;;;;;13.18;9.02;;;;;;;;;;5092985;28;20028;-72
2021/05/02 02:07:32;;;;;;;11.02;8.40;;;;;;;;;;5092682;28;20465;-72
2021/05/02 02:09:58;;;;;;;10.73;8.45;;;;;;;;;;5091734;28;20036;-72
2021/05/02 02:12:23;;;;;;;24.10;9.68;;;;;;;;;;5092968;28;20036;-72
2021/05/02 02:14:51;;;;;;;10.38;8.30;;;;;;;;;;5092819;28;20028;-72
2021/05/02 02:17:19;;;;;;;11.25;9.27;;;;;;;;;;5091442;28;20032;-72
2021/05/02 02:19:45;;;;;;;14.25;9.68;;;;;;;;;;5091430;28;20056;-72
2021/05/02 02:22:12;;;;;;;13.68;10.10;;;;;;;;;;5092559;28;20042;-72
2021/05/02 02:24:41;;;;;;;14.18;9.25;;;;;;;;;;5092804;28;20481;-72
2021/05/02 02:27:08;;;;;;;12.60;9.18;;;;;;;;;;5093751;28;20063;-72
2021/05/02 02:29:46;;;;;;;14.20;10.00;;;;;;;;;;5096412;28;20470;-72
2021/05/02 02:32:14;;;;;;;15.20;9.75;;;;;;;;;;5096335;28;20082;-72
2021/05/02 02:34:45;;;;;;;14.75;10.05;;;;;;;;;;5096576;28;20474;-72
2021/05/02 02:37:15;;;;;;;17.17;10.13;;;;;;;;;;5096171;28;20047;-72
2021/05/02 02:39:47;;;;;;;16.45;10.98;;;;;;;;;;5095064;28;20491;-72
2021/05/02 02:42:13;;;;;;;13.45;10.43;;;;;;;;;;5095950;28;20059;-72
2021/05/02 02:44:51;;;;;;;16.45;11.40;;;;;;;;;;5096140;28;20119;-72
2021/05/02 02:47:19;;;;;;;14.75;10.98;;;;;;;;;;5096065;28;20046;-72
2021/05/02 02:49:50;;;;;;;15.73;11.05;;;;;;;;;;5096242;28;20024;-72
2021/05/02 02:52:21;;;;;;;12.27;10.10;;;;;;;;;;5095803;28;20035;-72
2021/05/02 02:54:49;;;;;;;12.77;10.70;;;;;;;;;;5095726;28;20036;-72
2021/05/02 02:57:20;;;;;;;15.85;10.45;;;;;;;;;;5095668;28;20027;-72
2021/05/02 02:59:48;;;;;;;13.90;10.32;;;;;;;;;;5096097;28;20040;-72
2021/05/02 03:02:13;;;;;;;18.42;11.95;;;;;;;;;;5095974;28;20123;-72
2021/05/02 03:04:43;;;;;;;14.73;11.35;;;;;;;;;;5095741;28;20110;-72
2021/05/02 03:07:10;;;;;;;20.63;11.82;;;;;;;;;;5095506;28;20036;-72
2021/05/02 03:09:40;;;;;;;19.08;13.45;;;;;;;;;;5093875;28;20599;-72
2021/05/02 03:12:09;;;;;;;13.85;11.13;;;;;;;;;;5095792;28;20047;-72
2021/05/02 03:14:34;;;;;;;14.00;11.75;;;;;;;;;;5095613;28;20058;-72
2021/05/02 03:17:01;;;;;;;16.63;12.55;;;;;;;;;;5095455;28;20107;-72
2021/05/02 03:19:28;;;;;;;15.57;12.07;;;;;;;;;;5095476;28;20116;-72
2021/05/02 03:22:09;;;;;;;15.45;11.52;;;;;;;;;;5094281;28;20028;-72
2021/05/02 03:24:47;;;;;;;15.73;12.13;;;;;;;;;;5093893;28;20758;-72
2021/05/02 03:27:27;;;;;;;15.90;11.82;;;;;;;;;;5094073;28;20059;-72
2021/05/02 03:29:57;;;;;;;14.85;11.30;;;;;;;;;;5094075;28;20135;-72
2021/05/02 03:32:27;;;;;;;13.82;11.48;;;;;;;;;;5093832;28;20653;-72
2021/05/02 03:34:55;;;;;;;14.23;11.23;;;;;;;;;;5095234;28;20028;-72
2021/05/02 03:37:24;;;;;;;15.18;12.13;;;;;;;;;;5095288;28;20035;-72
2021/05/02 03:39:51;;;;;;;14.05;11.43;;;;;;;;;;5094040;28;20050;-72
2021/05/02 03:42:17;;;;;;;16.05;11.43;;;;;;;;;;5094842;28;20051;-72
2021/05/02 03:44:43;;;;;;;14.95;12.07;;;;;;;;;;5093844;28;20405;-72
2021/05/02 03:47:09;;;;;;;13.88;11.38;;;;;;;;;;5094949;28;20102;-72
2021/05/02 03:49:35;;;;;;;15.57;11.68;;;;;;;;;;5094567;28;20069;-72
2021/05/02 03:52:00;;;;;;;15.20;11.02;;;;;;;;;;5094954;28;20104;-72
2021/05/02 03:54:26;;;;;;;15.35;11.60;;;;;;;;;;5094568;28;20036;-72
2021/05/02 03:56:52;;;;;;;16.67;11.10;;;;;;;;;;5094717;28;20388;-72
2021/05/02 03:59:20;;;;;;;13.55;11.38;;;;;;;;;;5094995;28;20028;-72
2021/05/02 04:01:49;;;;;;;16.67;12.73;;;;;;;;;;5094670;28;20035;-72
2021/05/02 04:04:17;;;;;;;15.25;12.07;;;;;;;;;;5094741;28;20032;-72
2021/05/02 04:06:43;;;;;;;19.13;12.73;;;;;;;;;;5094580;28;20032;-72
2021/05/02 04:09:11;;;;;;;15.73;11.95;;;;;;;;;;5094174;28;20611;-72
2021/05/02 04:11:36;;;;;;;20.33;13.90;;;;;;;;;;5094533;28;20080;-72
2021/05/02 04:14:06;;;;;;;19.73;14.05;;;;;;;;;;5094486;28;20498;-73
2021/05/02 04:16:32;;;;;;;22.45;13.90;;;;;;;;;;5094028;28;20044;-72
2021/05/02 04:18:58;;;;;;;19.38;14.07;;;;;;;;;;5094609;28;20047;-72
2021/05/02 04:21:23;;;;;;;19.80;14.73;;;;;;;;;;5094354;28;20028;-72
2021/05/02 04:23:49;;;;;;;19.35;14.82;;;;;;;;;;5094010;28;20488;-72
2021/05/02 04:26:14;;;;;;;25.13;16.40;;;;;;;;;;5094346;28;20077;-72
2021/05/02 04:28:40;;;;;;;20.88;16.88;;;;;;;;;;5093991;28;20038;-72
2021/05/02 04:31:06;;;;;;;20.13;15.30;;;;;;;;;;5094068;28;20046;-72
2021/05/02 04:33:32;;;;;;;27.08;17.13;;;;;;;;;;5094126;28;20058;-72
2021/05/02 04:35:57;;;;;;;22.42;16.65;;;;;;;;;;5094135;28;20028;-72
2021/05/02 04:38:23;;;;;;;24.02;18.27;;;;;;;;;;5093562;28;20035;-72
2021/05/02 04:40:48;;;;;;;27.00;19.10;;;;;;;;;;5093632;28;20109;-72
2021/05/02 04:43:14;;;;;;;24.17;18.42;;;;;;;;;;5092537;28;20068;-72
2021/05/02 04:45:39;;;;;;;26.55;19.98;;;;;;;;;;5093656;28;20032;-72
2021/05/02 04:48:05;;;;;;;27.50;19.02;;;;;;;;;;5093774;28;20036;-72
2021/05/02 04:50:31;;;;;;;27.85;20.83;;;;;;;;;;5093733;28;20440;-72
2021/05/02 04:53:00;;;;;;;29.02;20.92;;;;;;;;;;5093258;28;20059;-72
2021/05/02 04:55:26;;;;;;;26.27;18.52;;;;;;;;;;5092535;28;20040;-72
2021/05/02 04:57:51;;;;;;;27.00;19.98;;;;;;;;;;5093644;28;20046;-72
2021/05/02 05:00:18;;;;;;;23.85;19.25;;;;;;;;;;5092154;28;20032;-72
2021/05/02 05:02:43;;;;;;;24.92;19.52;;;;;;;;;;5092456;28;20047;-72
2021/05/02 05:05:09;;;;;;;25.33;19.95;;;;;;;;;;5093642;28;20028;-72
2021/05/02 05:07:34;;;;;;;24.50;19.23;;;;;;;;;;5093370;28;20493;-72
2021/05/02 05:10:00;;;;;;;30.25;20.02;;;;;;;;;;5093275;28;20458;-72
2021/05/02 05:12:25;;;;;;;24.20;19.92;;;;;;;;;;5092145;28;20031;-72
2021/05/02 05:14:50;;;;;;;27.77;20.30;;;;;;;;;;5090862;28;20071;-72
2021/05/02 05:17:16;;;;;;;22.42;18.13;;;;;;;;;;5093527;28;20133;-72
2021/05/02 05:19:41;;;;;;;24.50;20.52;;;;;;;;;;5093315;28;20039;-72
2021/05/02 05:22:07;;;;;;;27.98;20.02;;;;;;;;;;5093349;28;20032;-72
2021/05/02 05:24:32;;;;;;;27.02;20.73;;;;;;;;;;5093089;28;20112;-72
2021/05/02 05:26:57;;;;;;;31.08;20.92;;;;;;;;;;5091991;28;20085;-72
2021/05/02 05:29:23;;;;;;;25.98;19.83;;;;;;;;;;5091961;28;20106;-72
2021/05/02 05:31:48;;;;;;;24.55;19.48;;;;;;;;;;5093197;28;20462;-72
2021/05/02 05:34:14;;;;;;;26.17;20.33;;;;;;;;;;5093313;28;20036;-72
2021/05/02 05:36:39;;;;;;;28.85;21.88;;;;;;;;;;5093084;28;20040;-72
2021/05/02 05:39:04;;;;;;;28.73;19.33;;;;;;;;;;5092902;28;20036;-72
2021/05/02 05:41:30;;;;;;;24.95;20.63;;;;;;;;;;5092855;28;20135;-72
2021/05/02 05:43:55;;;;;;;22.88;19.73;;;;;;;;;;5093071;28;20039;-72
2021/05/02 05:46:21;;;;;;;27.77;20.88;;;;;;;;;;5092530;28;20032;-72
2021/05/02 05:48:46;;;;;;;27.13;20.10;;;;;;;;;;5092678;28;20040;-72
2021/05/02 05:51:11;;;;;;;27.33;20.90;;;;;;;;;;5092988;28;20055;-72
2021/05/02 05:53:37;;;;;;;22.80;18.08;;;;;;;;;;5091354;28;20043;-72
2021/05/02 05:56:03;;;;;;;21.77;18.20;;;;;;;;;;5092994;28;20032;-72
2021/05/02 05:58:30;;;;;;;23.33;18.73;;;;;;;;;;5092830;28;20119;-72
2021/05/02 06:00:56;;;;;;;26.48;18.70;;;;;;;;;;5093073;28;20043;-72
2021/05/02 06:03:22;;;;;;;26.95;18.00;;;;;;;;;;5096187;28;20028;-72
2021/05/02 06:05:47;;;;;;;25.90;19.42;;;;;;;;;;5097012;28;20103;-72
2021/05/02 06:08:13;;;;;;;24.98;18.85;;;;;;;;;;5095269;28;20039;-72
2021/05/02 06:10:39;;;;;;;21.35;17.08;;;;;;;;;;5096519;28;20035;-72
2021/05/02 06:13:05;;;;;;;24.00;17.98;;;;;;;;;;5096655;28;20034;-72
2021/05/02 06:15:30;;;;;;;23.95;18.42;;;;;;;;;;5096817;28;20093;-72
2021/05/02 06:17:56;;;;;;;21.38;16.95;;;;;;;;;;5096847;28;20036;-72
2021/05/02 06:20:21;;;;;;;19.48;15.88;;;;;;;;;;5096610;28;20048;-72
2021/05/02 06:22:49;;;;;;;21.35;16.70;;;;;;;;;;5095239;28;20052;-72
2021/05/02 06:25:14;;;;;;;28.25;19.55;;;;;;;;;;5096417;28;20035;-72
2021/05/02 06:27:40;;;;;;;24.10;16.75;;;;;;;;;;5096422;28;20404;-73
2021/05/02 06:30:06;;;;;;;20.20;16.25;;;;;;;;;;5096667;28;20044;-74
2021/05/02 06:32:31;;;;;;;19.42;16.65;;;;;;;;;;5096601;28;20400;-73
2021/05/02 06:34:58;;;;;;;18.75;15.98;;;;;;;;;;5096228;28;20039;-73
2021/05/02 06:37:23;;;;;;;20.85;16.15;;;;;;;;;;5095937;28;20474;-72
2021/05/02 06:39:49;;;;;;;24.20;17.02;;;;;;;;;;5096189;28;20077;-72
2021/05/02 06:42:15;;;;;;;22.25;16.27;;;;;;;;;;5095969;28;20066;-72
2021/05/02 06:44:40;;;;;;;28.85;17.50;;;;;;;;;;5096226;28;20484;-72
2021/05/02 06:47:06;;;;;;;22.77;16.60;;;;;;;;;;5094868;28;20035;-72
2021/05/02 06:49:31;;;;;;;19.08;14.98;;;;;;;;;;5094774;28;20454;-72
2021/05/02 06:51:57;;;;;;;22.27;15.45;;;;;;;;;;5096177;28;20035;-72
2021/05/02 06:54:22;;;;;;;17.92;13.95;;;;;;;;;;5094876;28;20140;-72
2021/05/02 06:56:47;;;;;;;15.73;13.05;;;;;;;;;;5095451;28;20051;-72
2021/05/02 06:59:13;;;;;;;14.40;12.40;;;;;;;;;;5095925;28;20093;-72
2021/05/02 07:01:38;;;;;;;14.35;12.32;;;;;;;;;;5095895;28;20043;-71
2021/05/02 07:04:04;;;;;;;15.98;12.43;;;;;;;;;;5095716;28;20023;-72
2021/05/02 07:06:30;;;;;;;17.20;12.25;;;;;;;;;;5095778;28;20028;-73
2021/05/02 07:08:55;;;;;;;17.13;12.27;;;;;;;;;;5094250;28;20044;-73
2021/05/02 07:11:22;;;;;;;12.63;11.10;;;;;;;;;;5095623;28;20036;-72
2021/05/02 07:13:47;;;;;;;13.20;11.10;;;;;;;;;;5095643;28;20496;-72
2021/05/02 07:16:13;;;;;;;14.65;11.23;;;;;;;;;;5095614;28;20036;-72
2021/05/02 07:18:40;;;;;;;15.90;11.77;;;;;;;;;;5092728;28;20127;-72
2021/05/02 07:21:06;;;;;;;13.23;10.95;;;;;;;;;;5095340;28;20036;-72
2021/05/02 07:23:36;;;;;;;13.80;10.63;;;;;;;;;;5095459;28;20036;-73
2021/05/02 07:26:01;;;;;;;15.95;10.50;;;;;;;;;;5095457;28;20481;-73
2021/05/02 07:28:26;;;;;;;13.25;9.88;;;;;;;;;;5095546;28;20032;-72
2021/05/02 07:30:52;;;;;;;10.10;8.30;;;;;;;;;;5093823;28;20047;-71
2021/05/02 07:33:17;;;;;;;10.48;7.80;;;;;;;;;;5093546;28;20040;-74
2021/05/02 07:35:43;;;;;;;9.38;7.35;;;;;;;;;;5094762;28;20044;-72
2021/05/02 07:38:08;;;;;;;9.27;7.10;;;;;;;;;;5095131;28;20043;-71
2021/05/02 07:40:34;;;;;;;11.23;7.50;;;;;;;;;;5093812;28;20077;-72
2021/05/02 07:43:00;;;;;;;12.00;7.60;;;;;;;;;;5094896;28;20101;-72
2021/05/02 07:45:25;;;;;;;9.88;8.20;;;;;;;;;;5094971;28;20114;-72
2021/05/02 07:47:51;;;;;;;8.85;7.18;;;;;;;;;;5094366;28;20051;-72
2021/05/02 07:50:16;;;;;;;9.98;7.05;;;;;;;;;;5094865;28;20040;-72
2021/05/02 07:52:42;;;;;;;7.43;6.35;;;;;;;;;;5093782;28;20469;-74
2021/05/02 07:55:11;;;;;;;7.75;5.93;;;;;;;;;;5093096;28;20408;-73
2021/05/02 07:57:37;;;;;;;8.85;6.45;;;;;;;;;;5094738;28;20036;-71
2021/05/02 08:00:04;;;;;;;21.05;6.93;;;;;;;;;;5094666;28;20408;-70
2021/05/02 08:02:41;;;;;;;8.70;6.43;;;;;;;;;;5094610;28;20151;-71
2021/05/02 08:05:10;;;;;;;8.15;6.38;;;;;;;;;;5093181;28;20028;-71
2021/05/02 08:07:35;;;;;;;8.93;5.68;;;;;;;;;;5094412;28;20032;-71
2021/05/02 08:10:02;;;;;;;6.70;5.75;;;;;;;;;;5094429;28;20512;-71
2021/05/02 08:12:28;;;;;;;8.52;6.25;;;;;;;;;;5093215;28;20071;-73
2021/05/02 08:14:53;;;;;;;8.88;6.10;;;;;;;;;;5094179;28;20059;-73
2021/05/02 08:17:18;;;;;;;7.80;5.50;;;;;;;;;;5093706;28;20448;-73
2021/05/02 08:19:44;;;;;;;9.95;5.75;;;;;;;;;;5093071;28;20036;-73
2021/05/02 08:22:09;;;;;;;7.28;5.88;;;;;;;;;;5094274;28;20039;-73
2021/05/02 08:24:35;;;;;;;7.00;5.45;;;;;;;;;;5092616;28;20061;-73
2021/05/02 08:27:00;;;;;;;6.80;4.97;;;;;;;;;;5092953;28;20036;-73
2021/05/02 08:29:26;;;;;;;7.07;5.40;;;;;;;;;;5093948;28;20169;-73
2021/05/02 08:31:51;;;;;;;6.55;4.88;;;;;;;;;;5094091;28;20043;-72
2021/05/02 08:34:17;;;;;;;6.13;4.80;;;;;;;;;;5094308;28;20036;-72
2021/05/02 08:36:42;;;;;;;7.97;5.20;;;;;;;;;;5092516;28;20067;-73
2021/05/02 08:39:08;;;;;;;6.63;4.90;;;;;;;;;;5093725;28;20047;-72
2021/05/02 08:41:34;;;;;;;6.57;4.45;;;;;;;;;;5092653;28;20040;-72
2021/05/02 08:44:00;;;;;;;6.88;4.75;;;;;;;;;;5093329;28;20031;-72
2021/05/02 08:46:26;;;;;;;6.82;5.25;;;;;;;;;;5092983;28;20492;-73
2021/05/02 08:48:51;;;;;;;6.22;4.80;;;;;;;;;;5092919;28;20064;-74
2021/05/02 08:51:17;;;;;;;14.02;4.80;;;;;;;;;;5093442;28;20385;-73
2021/05/02 08:53:43;;;;;;;8.93;4.68;;;;;;;;;;5093675;28;20031;-74
2021/05/02 08:56:09;;;;;;;5.75;4.25;;;;;;;;;;5093509;28;20084;-79
2021/05/02 08:58:35;;;;;;;5.57;4.35;;;;;;;;;;5101905;28;20496;-83
2021/05/02 09:01:01;;;;;;;6.30;4.22;;;;;;;;;;5099391;28;20031;-81
2021/05/02 09:03:41;;;;;;;7.15;4.22;;;;;;;;;;5101964;28;20032;-82
2021/05/02 09:06:23;;;;;;;7.45;4.43;;;;;;;;;;5094154;28;20470;-79
2021/05/02 09:08:51;;;;;;;6.22;3.75;;;;;;;;;;5094424;28;20077;-77
2021/05/02 09:11:28;;;;;;;6.85;4.28;;;;;;;;;;5090504;28;20028;-77
2021/05/02 09:13:54;;;;;;;10.48;4.72;;;;;;;;;;5093139;28;20032;-77
2021/05/02 09:16:19;;;;;;;5.88;3.90;;;;;;;;;;5093152;28;20054;-71
2021/05/02 09:18:48;;;;;;;8.13;4.75;;;;;;;;;;5093393;28;20104;-71
2021/05/02 09:21:16;;;;;;;6.55;4.40;;;;;;;;;;5093335;28;20101;-72
2021/05/02 09:23:43;;;;;;;7.03;5.05;;;;;;;;;;5092186;28;20225;-72
2021/05/02 09:26:28;;;;;;;6.30;4.40;;;;;;;;;;5092974;28;20039;-71
2021/05/02 09:28:56;;;;;;;6.47;4.20;;;;;;;;;;5093123;28;20047;-73
2021/05/02 09:31:30;;;;;;;6.18;4.22;;;;;;;;;;5093414;28;20042;-74
2021/05/02 09:34:13;;;;;;;6.68;4.15;;;;;;;;;;5093278;28;20427;-76
2021/05/02 09:36:50;;;;;;;5.80;4.20;;;;;;;;;;5093669;28;20177;-75
2021/05/02 09:39:37;;;;;;;5.20;3.45;;;;;;;;;;5097606;28;20036;-75
2021/05/02 09:42:22;;;;;;;4.90;3.70;;;;;;;;;;5097138;28;20048;-72
2021/05/02 09:44:50;;;;;;;5.75;4.10;;;;;;;;;;5097319;28;20418;-73
2021/05/02 09:47:30;;;;;;;5.93;3.47;;;;;;;;;;5097363;28;20024;-72
2021/05/02 09:50:06;;;;;;;5.40;3.67;;;;;;;;;;5097642;28;20071;-75
2021/05/02 09:52:54;;;;;;;6.28;4.03;;;;;;;;;;5097378;28;20047;-74
2021/05/02 09:55:31;;;;;;;5.15;3.42;;;;;;;;;;5097648;28;20043;-73
2021/05/02 09:58:13;;;;;;;6.90;3.63;;;;;;;;;;5097266;28;20040;-78
2021/05/02 10:00:42;;;;;;;7.35;3.88;;;;;;;;;;5097318;28;20044;-73
2021/05/02 10:03:19;;;;;;;3.70;2.95;;;;;;;;;;5097214;28;20070;-72
2021/05/02 10:05:57;;;;;;;4.80;3.20;;;;;;;;;;5095799;28;20036;-73
2021/05/02 10:08:27;;;;;;;6.22;3.60;;;;;;;;;;5096593;28;20040;-75
2021/05/02 10:10:53;;;;;;;7.28;3.80;;;;;;;;;;5095500;28;20047;-73
2021/05/02 10:13:19;;;;;;;9.30;4.22;;;;;;;;;;5097038;28;20032;-74
2021/05/02 10:15:45;;;;;;;7.22;3.70;;;;;;;;;;5096816;28;20036;-72
2021/05/02 10:18:11;;;;;;;6.38;3.72;;;;;;;;;;5096169;28;20038;-76
2021/05/02 10:20:36;;;;;;;6.95;3.75;;;;;;;;;;5096630;28;20028;-73
2021/05/02 10:23:03;;;;;;;5.60;3.72;;;;;;;;;;5095025;28;20118;-79
2021/05/02 10:25:29;;;;;;;4.38;3.33;;;;;;;;;;5096867;28;20077;-73
2021/05/02 10:27:54;;;;;;;5.28;3.47;;;;;;;;;;5096822;28;20436;-72
2021/05/02 10:30:31;;;;;;;5.43;3.33;;;;;;;;;;5097370;28;20047;-78
2021/05/02 10:33:05;;;;;;;4.05;3.28;;;;;;;;;;5096530;28;20032;-74
2021/05/02 10:35:58;;;;;;;6.63;3.25;;;;;;;;;;5097597;28;20081;-74
2021/05/02 10:38:45;;;;;;;4.82;3.20;;;;;;;;;;5094057;28;20052;-74
2021/05/02 10:41:35;;;;;;;4.22;2.83;;;;;;;;;;5054207;28;20390;-76
2021/05/02 10:44:05;;;;;;;5.07;3.47;;;;;;;;;;5055276;28;20226;-75
2021/05/02 10:46:52;;;;;;;5.03;3.45;;;;;;;;;;5054638;28;20120;-74
2021/05/02 10:49:17;;;;;;;4.38;3.13;;;;;;;;;;5054138;28;20047;-72
2021/05/02 10:51:43;;;;;;;5.32;3.50;;;;;;;;;;5055994;28;20165;-75
2021/05/02 10:54:16;;;;;;;6.75;3.40;;;;;;;;;;5055560;28;20037;-75
2021/05/02 10:57:01;;;;;;;4.32;3.10;;;;;;;;;;5055726;28;20029;-75
2021/05/02 11:00:04;;;;;;;5.78;3.53;;;;;;;;;;5055747;28;20119;-75
2021/05/02 11:02:44;;;;;;;6.93;3.33;;;;;;;;;;5055559;28;20490;-75
2021/05/02 11:05:13;;;;;;;6.55;3.63;;;;;;;;;;5055882;28;20028;-75
2021/05/02 11:07:40;;;;;;;6.55;3.80;;;;;;;;;;5055679;28;20040;-75
2021/05/02 11:10:09;;;;;;;6.97;3.53;;;;;;;;;;5080958;28;20043;-75
2021/05/02 11:12:35;;;;;;;9.38;3.90;;;;;;;;;;5095976;28;20036;-75
2021/05/02 11:15:41;;;;;;;7.80;4.20;;;;;;;;;;5095690;28;20043;-75
2021/05/02 11:18:21;;;;;;;9.73;3.78;;;;;;;;;;5095222;28;20043;-73
2021/05/02 11:20:51;;;;;;;7.22;3.85;;;;;;;;;;5094170;28;20081;-73
2021/05/02 11:23:18;;;;;;;7.65;3.83;;;;;;;;;;5093079;28;20044;-73
2021/05/02 11:25:52;;;;;;;7.63;4.65;;;;;;;;;;5095538;28;20035;-71
2021/05/02 11:28:41;;;;;;;6.38;4.20;;;;;;;;;;5095238;28;20059;-73
2021/05/02 11:31:06;;;;;;;5.47;3.35;;;;;;;;;;5094193;28;20044;-72
2021/05/02 11:33:32;;;;;;;6.47;3.90;;;;;;;;;;5093945;28;20043;-72
2021/05/02 11:35:58;;;;;;;18.38;10.90;;;;;;;;;;5094863;28;20032;-72
2021/05/02 11:38:38;;;;;;;65.03;36.30;;;;;;;;;;5093759;28;20073;-72
2021/05/02 11:41:08;;;;;;;15.05;7.72;;;;;;;;;;5094825;28;20478;-74
2021/05/02 11:43:34;;;;;;;9.43;4.70;;;;;;;;;;5095030;28;20039;-72
2021/05/02 11:46:04;;;;;;;8.40;4.47;;;;;;;;;;5095297;28;20449;-76
2021/05/02 11:48:35;;;;;;;6.55;4.20;;;;;;;;;;5096130;28;20058;-78
2021/05/02 11:51:26;;;;;;;12.13;3.92;;;;;;;;;;5096093;28;20036;-77
2021/05/02 11:53:53;;;;;;;11.90;5.72;;;;;;;;;;5073841;28;20045;-78
2021/05/02 11:56:28;;;;;;;6.28;3.70;;;;;;;;;;5075323;28;20040;-77
2021/05/02 11:58:55;;;;;;;7.15;3.78;;;;;;;;;;5075107;28;20039;-77
2021/05/02 12:01:30;;;;;;;7.28;4.18;;;;;;;;;;5074479;28;20363;-76
2021/05/02 12:04:03;;;;;;;8.65;3.90;;;;;;;;;;5075776;28;20043;-82
2021/05/02 12:06:33;;;;;;;7.70;3.55;;;;;;;;;;5077703;28;20051;-78
2021/05/02 12:09:00;;;;;;;4.95;3.25;;;;;;;;;;5075969;28;20032;-78
2021/05/02 12:11:26;;;;;;;8.85;4.05;;;;;;;;;;5072443;28;20036;-75
2021/05/02 12:13:55;;;;;;;6.32;3.70;;;;;;;;;;5073671;28;20398;-74
2021/05/02 12:16:28;;;;;;;6.03;3.75;;;;;;;;;;5073634;28;20035;-75
2021/05/02 12:19:00;;;;;;;4.95;3.25;;;;;;;;;;5071876;28;20082;-74
2021/05/02 12:21:40;;;;;;;5.43;2.92;;;;;;;;;;5073092;28;20047;-74
2021/05/02 12:24:14;;;;;;;4.00;2.85;;;;;;;;;;5072585;28;20040;-74
2021/05/02 12:26:44;;;;;;;4.50;2.97;;;;;;;;;;5072900;28;20020;-74
2021/05/02 12:29:18;;;;;;;4.82;2.67;;;;;;;;;;5072428;28;20052;-74
2021/05/02 12:31:51;;;;;;;5.32;3.38;;;;;;;;;;5071992;28;20518;-74
2021/05/02 12:34:16;;;;;;;6.25;2.80;;;;;;;;;;5072512;28;20422;-74
2021/05/02 12:36:42;;;;;;;9.05;3.58;;;;;;;;;;5072715;28;20029;-75
2021/05/02 12:39:10;;;;;;;5.70;2.47;;;;;;;;;;5067978;28;20454;-74
2021/05/02 12:41:36;;;;;;;4.93;2.42;;;;;;;;;;5062998;28;20552;-74
2021/05/02 12:44:17;;;;;;;4.38;2.20;;;;;;;;;;5061789;28;20817;-74
2021/05/02 12:46:50;;;;;;;4.32;2.30;;;;;;;;;;5061588;28;20134;-74
2021/05/02 12:49:35;;;;;;;3.60;1.85;;;;;;;;;;5061864;28;20104;-74
2021/05/02 12:52:03;;;;;;;6.07;1.90;;;;;;;;;;5060110;28;20052;-74
2021/05/02 12:54:31;;;;;;;5.57;1.88;;;;;;;;;;5062155;28;20028;-74
2021/05/02 12:57:08;;;;;;;3.00;1.77;;;;;;;;;;5062990;28;20039;-74
2021/05/02 12:59:53;;;;;;;3.97;1.75;;;;;;;;;;5072393;28;20048;-74
2021/05/02 13:02:32;;;;;;;4.75;1.70;;;;;;;;;;5077831;28;20066;-74
2021/05/02 13:05:02;;;;;;;2.90;1.40;;;;;;;;;;5093562;28;20032;-74
2021/05/02 13:07:38;;;;;;;10.70;2.25;;;;;;;;;;5093270;28;20047;-74
2021/05/02 13:10:09;;;;;;;4.38;1.83;;;;;;;;;;5093517;28;20393;-74
2021/05/02 13:13:01;;;;;;;5.03;1.83;;;;;;;;;;5093635;28;20032;-74
2021/05/02 13:15:38;;;;;;;8.70;2.17;;;;;;;;;;5092305;28;20043;-74
2021/05/02 13:18:15;;;;;;;6.50;1.70;;;;;;;;;;5092934;28;20043;-74
2021/05/02 13:20:51;;;;;;;4.30;1.67;;;;;;;;;;5093160;28;20063;-74
2021/05/02 13:23:26;;;;;;;3.95;1.80;;;;;;;;;;5093363;28;20063;-74
2021/05/02 13:26:10;;;;;;;3.92;1.27;;;;;;;;;;5093501;28;20484;-74
2021/05/02 13:28:38;;;;;;;5.13;1.50;;;;;;;;;;5093043;28;20028;-74
2021/05/02 13:31:04;;;;;;;3.78;1.50;;;;;;;;;;5093372;28;20484;-74
2021/05/02 13:33:30;;;;;;;3.15;1.33;;;;;;;;;;5092970;28;20032;-75
2021/05/02 13:35:57;;;;;;;2.42;1.30;;;;;;;;;;5093312;28;20058;-74
2021/05/02 13:38:22;;;;;;;4.25;1.58;;;;;;;;;;5093333;28;20520;-74
2021/05/02 13:40:47;;;;;;;5.78;1.25;;;;;;;;;;5091379;28;20032;-75
2021/05/02 13:43:13;;;;;;;3.45;1.63;;;;;;;;;;5093226;28;20451;-74
2021/05/02 13:45:41;;;;;;;2.13;1.13;;;;;;;;;;5093215;28;20036;-74
2021/05/02 13:48:11;;;;;;;3.40;1.55;;;;;;;;;;5093225;28;20489;-74
2021/05/02 13:50:37;;;;;;;2.20;1.10;;;;;;;;;;5092983;28;20040;-75
2021/05/02 13:53:03;;;;;;;3.70;1.23;;;;;;;;;;5092984;28;20042;-74
2021/05/02 13:55:29;;;;;;;1.85;1.00;;;;;;;;;;5091286;28;20036;-74
2021/05/02 13:57:54;;;;;;;2.70;1.08;;;;;;;;;;5092825;28;20047;-74
2021/05/02 14:00:20;;;;;;;5.43;2.10;;;;;;;;;;5092997;28;20542;-75
2021/05/02 14:02:47;;;;;;;3.92;1.20;;;;;;;;;;5091720;28;20047;-75
2021/05/02 14:05:15;;;;;;;3.03;1.45;;;;;;;;;;5093036;28;20035;-75
2021/05/02 14:07:42;;;;;;;3.17;1.40;;;;;;;;;;5092703;28;20024;-75
2021/05/02 14:10:09;;;;;;;2.42;1.40;;;;;;;;;;5092671;28;20043;-75
2021/05/02 14:12:35;;;;;;;3.53;1.40;;;;;;;;;;5091717;28;20154;-73
2021/05/02 14:15:01;;;;;;;3.38;1.30;;;;;;;;;;5091577;28;20389;-72
2021/05/02 14:17:27;;;;;;;3.63;1.38;;;;;;;;;;5092740;28;20051;-73
2021/05/02 14:19:53;;;;;;;3.90;1.38;;;;;;;;;;5092904;28;20108;-73
2021/05/02 14:22:20;;;;;;;2.22;1.30;;;;;;;;;;5092932;28;20040;-73
2021/05/02 14:24:46;;;;;;;5.45;1.55;;;;;;;;;;5096565;28;20047;-73
2021/05/02 14:27:11;;;;;;;4.28;1.33;;;;;;;;;;5096725;28;20043;-72
2021/05/02 14:29:37;;;;;;;2.60;1.27;;;;;;;;;;5096267;28;20040;-73
2021/05/02 14:32:03;;;;;;;3.53;1.48;;;;;;;;;;5096495;28;20062;-73
2021/05/02 14:34:29;;;;;;;2.42;1.30;;;;;;;;;;5096623;28;20035;-73
2021/05/02 14:36:57;;;;;;;3.90;1.70;;;;;;;;;;5096253;28;20031;-73
2021/05/02 14:39:24;;;;;;;6.70;1.77;;;;;;;;;;5096389;28;20032;-73
2021/05/02 14:41:50;;;;;;;3.45;1.50;;;;;;;;;;5094294;28;20067;-72